createdAt,value
2016-12-02T00:00:21.339Z,925.06
2016-12-02T00:00:49.409Z,925.07
2016-12-02T00:01:17.394Z,925.04
2016-12-02T00:01:45.190Z,925.06
2016-12-02T00:02:13.265Z,925.07
2016-12-02T00:02:41.287Z,925.08
2016-12-02T00:03:10.039Z,925.07
2016-12-02T00:03:37.933Z,925.11
2016-12-02T00:04:05.911Z,925.11
2016-12-02T00:04:34.764Z,925.13
2016-12-02T00:05:02.847Z,925.11
2016-12-02T00:05:31.692Z,925.15
2016-12-02T00:05:59.772Z,925.17
2016-12-02T00:06:30.175Z,925.12
2016-12-02T00:06:59.720Z,925.21
2016-12-02T00:07:27.696Z,925.18
2016-12-02T00:07:56.567Z,925.14
2016-12-02T00:08:24.553Z,925.18
2016-12-02T00:08:52.522Z,925.14
2016-12-02T00:09:21.286Z,925.12
2016-12-02T00:09:50.139Z,925.17
2016-12-02T00:10:18.981Z,925.19
2016-12-02T00:10:46.868Z,925.21
2016-12-02T00:11:15.167Z,925.16
2016-12-02T00:11:43.230Z,925.17
2016-12-02T00:12:11.303Z,925.15
2016-12-02T00:12:40.151Z,925.14
2016-12-02T00:13:08.221Z,925.25
2016-12-02T00:13:36.222Z,925.25
2016-12-02T00:14:04.199Z,925.26
2016-12-02T00:14:32.178Z,925.26
2016-12-02T00:15:00.262Z,925.25
2016-12-02T00:15:29.037Z,925.28
2016-12-02T00:15:58.672Z,925.3
2016-12-02T00:16:26.968Z,925.32
2016-12-02T00:16:55.832Z,925.32
2016-12-02T00:17:23.907Z,925.34
2016-12-02T00:17:51.979Z,925.29
2016-12-02T00:18:20.538Z,925.34
2016-12-02T00:18:49.379Z,925.35
2016-12-02T00:19:17.371Z,925.34
2016-12-02T00:19:46.219Z,925.34
2016-12-02T00:20:14.112Z,925.36
2016-12-02T00:20:42.958Z,925.33
2016-12-02T00:21:11.038Z,925.34
2016-12-02T00:21:38.960Z,925.31
2016-12-02T00:22:06.831Z,925.33
2016-12-02T00:22:36.465Z,925.29
2016-12-02T00:23:05.458Z,925.32
2016-12-02T00:23:34.906Z,925.25
2016-12-02T00:24:02.967Z,925.29
2016-12-02T00:24:31.043Z,925.3
2016-12-02T00:24:59.038Z,925.27
2016-12-02T00:25:27.787Z,925.27
2016-12-02T00:25:56.631Z,925.28
2016-12-02T00:26:25.475Z,925.29
2016-12-02T00:26:53.361Z,925.29
2016-12-02T00:27:21.151Z,925.35
2016-12-02T00:27:49.230Z,925.31
2016-12-02T00:28:17.984Z,925.29
2016-12-02T00:28:46.255Z,925.29
2016-12-02T00:29:14.140Z,925.27
2016-12-02T00:29:42.121Z,925.28
2016-12-02T00:30:10.184Z,925.27
2016-12-02T00:30:38.948Z,925.25
2016-12-02T00:31:06.931Z,925.26
2016-12-02T00:31:34.897Z,925.22
2016-12-02T00:32:03.656Z,925.17
2016-12-02T00:32:31.736Z,925.21
2016-12-02T00:32:59.810Z,925.19
2016-12-02T00:33:28.586Z,925.2
2016-12-02T00:33:57.447Z,925.16
2016-12-02T00:34:25.517Z,925.17
2016-12-02T00:35:31.742Z,925.13
2016-12-02T00:36:01.359Z,925.15
2016-12-02T00:36:29.338Z,925.11
2016-12-02T00:36:58.205Z,925.12
2016-12-02T00:37:27.049Z,925.13
2016-12-02T00:37:55.184Z,925.17
2016-12-02T00:38:23.254Z,925.15
2016-12-02T00:38:51.342Z,925.2
2016-12-02T00:39:20.187Z,925.19
2016-12-02T00:39:48.251Z,925.12
2016-12-02T00:40:16.333Z,925.12
2016-12-02T00:40:45.083Z,925.12
2016-12-02T00:41:13.059Z,925.17
2016-12-02T00:41:40.955Z,925.12
2016-12-02T00:42:09.042Z,925.21
2016-12-02T00:42:37.016Z,925.17
2016-12-02T00:43:05.095Z,925.09
2016-12-02T00:43:34.742Z,925.18
2016-12-02T00:44:03.499Z,925.17
2016-12-02T00:44:32.950Z,925.21
2016-12-02T00:45:01.024Z,925.22
2016-12-02T00:45:29.001Z,925.23
2016-12-02T00:45:57.491Z,925.25
2016-12-02T00:46:25.560Z,925.23
2016-12-02T00:46:54.318Z,925.23
2016-12-02T00:47:24.722Z,925.27
2016-12-02T00:47:52.710Z,925.23
2016-12-02T00:48:20.685Z,925.25
2016-12-02T00:48:48.758Z,925.28
2016-12-02T00:49:17.608Z,925.28
2016-12-02T00:49:45.674Z,925.28
2016-12-02T00:50:15.242Z,925.3
2016-12-02T00:50:44.294Z,925.29
2016-12-02T00:51:12.272Z,925.29
2016-12-02T00:51:41.815Z,925.34
2016-12-02T00:52:10.564Z,925.29
2016-12-02T00:52:38.546Z,925.23
2016-12-02T00:53:07.552Z,925.29
2016-12-02T00:53:35.619Z,925.3
2016-12-02T00:54:03.681Z,925.29
2016-12-02T00:54:31.649Z,925.27
2016-12-02T00:54:59.619Z,925.31
2016-12-02T00:55:28.379Z,925.29
2016-12-02T00:56:00.356Z,925.28
2016-12-02T00:56:29.205Z,925.33
2016-12-02T00:56:57.086Z,925.25
2016-12-02T00:57:25.155Z,925.31
2016-12-02T00:57:53.993Z,925.27
2016-12-02T00:58:23.611Z,925.28
2016-12-02T00:58:51.502Z,925.32
2016-12-02T00:59:19.481Z,925.39
2016-12-02T00:59:48.321Z,925.35
2016-12-02T01:00:17.168Z,925.35
2016-12-02T01:00:45.235Z,925.34
2016-12-02T01:01:13.983Z,925.34
2016-12-02T01:01:42.736Z,925.28
2016-12-02T01:02:11.587Z,925.3
2016-12-02T01:02:41.210Z,925.3
2016-12-02T01:03:09.183Z,925.35
2016-12-02T01:03:37.151Z,925.27
2016-12-02T01:04:05.998Z,925.28
2016-12-02T01:04:33.981Z,925.33
2016-12-02T01:05:01.949Z,925.3
2016-12-02T01:05:30.011Z,925.31
2016-12-02T01:05:58.852Z,925.35
2016-12-02T01:06:27.705Z,925.3
2016-12-02T01:06:55.760Z,925.35
2016-12-02T01:07:24.517Z,925.32
2016-12-02T01:07:53.366Z,925.33
2016-12-02T01:08:21.586Z,925.33
2016-12-02T01:08:49.652Z,925.37
2016-12-02T01:09:17.626Z,925.32
2016-12-02T01:09:45.590Z,925.33
2016-12-02T01:10:14.357Z,925.34
2016-12-02T01:10:42.744Z,925.34
2016-12-02T01:11:12.366Z,925.31
2016-12-02T01:11:41.217Z,925.32
2016-12-02T01:12:10.057Z,925.3
2016-12-02T01:12:38.122Z,925.33
2016-12-02T01:13:06.181Z,925.29
2016-12-02T01:13:35.031Z,925.25
2016-12-02T01:14:03.789Z,925.3
2016-12-02T01:15:10.829Z,925.26
2016-12-02T01:15:39.666Z,925.24
2016-12-02T01:16:09.210Z,925.22
2016-12-02T01:16:37.188Z,925.25
2016-12-02T01:17:06.039Z,925.27
2016-12-02T01:17:34.706Z,925.16
2016-12-02T01:18:02.598Z,925.25
2016-12-02T01:18:31.174Z,925.25
2016-12-02T01:18:59.140Z,925.27
2016-12-02T01:19:27.890Z,925.23
2016-12-02T01:19:56.642Z,925.21
2016-12-02T01:20:24.703Z,925.2
2016-12-02T01:20:52.676Z,925.21
2016-12-02T01:21:20.652Z,925.23
2016-12-02T01:21:49.519Z,925.2
2016-12-02T01:22:17.561Z,925.16
2016-12-02T01:22:46.414Z,925.16
2016-12-02T01:23:16.190Z,925.22
2016-12-02T01:23:44.253Z,925.2
2016-12-02T01:24:13.001Z,925.18
2016-12-02T01:24:40.986Z,925.17
2016-12-02T01:25:10.613Z,925.16
2016-12-02T01:25:38.672Z,925.16
2016-12-02T01:26:06.747Z,925.16
2016-12-02T01:26:34.716Z,925.1
2016-12-02T01:27:04.337Z,925.17
2016-12-02T01:27:32.401Z,925.11
2016-12-02T01:28:02.023Z,925.13
2016-12-02T01:28:31.668Z,925.16
2016-12-02T01:29:00.423Z,925.1
2016-12-02T01:29:28.488Z,925.07
2016-12-02T01:29:57.258Z,925.09
2016-12-02T01:30:26.797Z,925.04
2016-12-02T01:30:54.765Z,925.02
2016-12-02T01:31:23.611Z,925.07
2016-12-02T01:31:51.578Z,925.06
2016-12-02T01:32:20.372Z,925.06
2016-12-02T01:32:48.364Z,925.05
2016-12-02T01:33:16.340Z,925.06
2016-12-02T01:33:44.416Z,925.05
2016-12-02T01:34:12.486Z,925.05
2016-12-02T01:34:40.555Z,925.06
2016-12-02T01:35:09.319Z,925.05
2016-12-02T01:35:37.397Z,925.07
2016-12-02T01:36:06.265Z,925.09
2016-12-02T01:36:34.333Z,925.05
2016-12-02T01:37:02.324Z,925.03
2016-12-02T01:37:30.055Z,925.05
2016-12-02T01:37:58.045Z,925.08
2016-12-02T01:38:26.270Z,925.06
2016-12-02T01:38:54.359Z,925.09
2016-12-02T01:39:22.327Z,925.05
2016-12-02T01:39:51.188Z,925.05
2016-12-02T01:40:20.052Z,925.08
2016-12-02T01:40:48.026Z,925.03
2016-12-02T01:41:15.940Z,925.08
2016-12-02T01:41:44.012Z,925.07
2016-12-02T01:42:12.085Z,925.06
2016-12-02T01:42:40.857Z,925.07
2016-12-02T01:43:10.023Z,925.06
2016-12-02T01:43:37.917Z,925.05
2016-12-02T01:44:06.709Z,925.07
2016-12-02T01:44:34.770Z,925.05
2016-12-02T01:45:02.834Z,925.02
2016-12-02T01:45:30.903Z,925.06
2016-12-02T01:45:59.763Z,925.07
2016-12-02T01:46:29.386Z,925.03
2016-12-02T01:46:58.220Z,925.06
2016-12-02T01:47:26.093Z,925.03
2016-12-02T01:47:54.939Z,925.05
2016-12-02T01:48:22.915Z,925.07
2016-12-02T01:48:50.888Z,925.06
2016-12-02T01:49:20.510Z,925.02
2016-12-02T01:49:48.596Z,925.02
2016-12-02T01:50:16.591Z,925.02
2016-12-02T01:50:45.427Z,925.02
2016-12-02T01:51:14.282Z,925.02
2016-12-02T01:51:42.335Z,924.97
2016-12-02T01:52:11.090Z,924.98
2016-12-02T01:52:38.884Z,925.03
2016-12-02T01:53:08.153Z,925
2016-12-02T01:53:36.288Z,924.97
2016-12-02T01:54:42.637Z,924.96
2016-12-02T01:55:10.700Z,924.99
2016-12-02T01:55:39.456Z,924.93
2016-12-02T01:56:07.530Z,924.9
2016-12-02T01:56:36.371Z,924.89
2016-12-02T01:57:04.242Z,924.92
2016-12-02T01:57:32.044Z,924.92
2016-12-02T01:58:00.114Z,924.89
2016-12-02T01:58:27.988Z,924.9
2016-12-02T01:58:56.052Z,924.9
2016-12-02T01:59:24.903Z,924.9
2016-12-02T01:59:53.744Z,924.8
2016-12-02T02:00:22.499Z,924.85
2016-12-02T02:00:50.484Z,924.84
2016-12-02T02:01:18.545Z,924.8
2016-12-02T02:01:47.320Z,924.83
2016-12-02T02:02:15.407Z,924.82
2016-12-02T02:02:44.254Z,924.75
2016-12-02T02:03:13.020Z,924.77
2016-12-02T02:03:41.003Z,924.78
2016-12-02T02:04:09.773Z,924.74
2016-12-02T02:04:37.857Z,924.76
2016-12-02T02:05:06.693Z,924.69
2016-12-02T02:05:34.680Z,924.7
2016-12-02T02:06:02.760Z,924.69
2016-12-02T02:06:32.394Z,924.75
2016-12-02T02:07:01.273Z,924.71
2016-12-02T02:07:29.260Z,924.76
2016-12-02T02:07:57.240Z,924.76
2016-12-02T02:08:26.091Z,924.75
2016-12-02T02:08:55.077Z,924.74
2016-12-02T02:09:23.937Z,924.73
2016-12-02T02:09:52.788Z,924.77
2016-12-02T21:45:12.863Z,924.71
2016-12-02T21:45:40.938Z,921.58
2016-12-02T21:46:08.913Z,921.56
2016-12-02T21:46:39.337Z,921.61
2016-12-02T21:47:07.421Z,921.62
2016-12-02T21:47:36.277Z,921.65
2016-12-02T21:48:04.372Z,921.6
2016-12-02T21:48:32.442Z,921.59
2016-12-02T21:49:00.428Z,921.64
2016-12-02T21:49:28.416Z,921.65
2016-12-02T21:49:57.276Z,921.65
2016-12-02T21:50:25.402Z,921.64
2016-12-02T21:50:53.383Z,921.64
2016-12-02T21:51:21.473Z,921.62
2016-12-02T21:51:49.534Z,921.65
2016-12-02T21:52:17.508Z,921.64
2016-12-02T21:52:45.503Z,921.61
2016-12-02T21:53:14.361Z,921.63
2016-12-02T21:53:43.213Z,921.63
2016-12-02T21:54:11.206Z,921.64
2016-12-02T21:54:39.974Z,921.62
2016-12-02T21:55:07.985Z,921.61
2016-12-02T21:55:36.073Z,921.65
2016-12-02T21:56:04.139Z,921.67
